CYBG

CFB Bagotville Airport

Bagotville, Quebec, Canada
METAR CYBG 172300Z 11004KT 25SM BKN035 OVC080 M11/M15 A2998 RMK SC5AC3 SLP167
Observed Flight Rules
Jan-17 @ 23:00 UTC (an hour ago) Visual Flight Rules
Wind Visibility Clouds
110° at 4 knots 25 miles
  • Broken at 3,500' AGL
  • Overcast at 8,000' AGL
Temperatures Readings
Current -11°C / 12°F
Dewpoint -15°C / 5°F
Humidity 73%
Altimeter 29.98" Hg
Pressure 1016.7 hPa
Elevation 159
METAR CYBG 172300Z 11004KT 25SM BKN035 OVC080 M11/M15 A2998 RMK SC5AC3 SLP167
Observed Flight Rules
Jan-17 @ 23:00 UTC
(an hour ago)
VFR
Wind Visibility
110° at 4 knots 25 miles
Clouds
  • Broken at 3,500' AGL
  • Overcast at 8,000' AGL
Temperature Dewpoint
-11°C / 12°F -15°C / 5°F
Humidity Altimeter Pressure
73% 29.98" Hg 1016.7 hPa